createdAt,value
2023-04-13T00:02:21.468Z,13.73
2023-04-13T00:04:50.884Z,13.52
2023-04-13T00:07:18.761Z,13.43
2023-04-13T00:09:47.439Z,13.02
2023-04-13T00:12:21.377Z,12.90
2023-04-13T00:14:50.986Z,12.80
2023-04-13T00:17:18.068Z,12.60
2023-04-13T00:19:47.985Z,13.18
2023-04-13T00:22:15.582Z,13.05
2023-04-13T00:24:44.170Z,12.90
2023-04-13T00:27:11.140Z,12.57
2023-04-13T00:29:38.404Z,12.45
2023-04-13T00:32:05.444Z,12.98
2023-04-13T00:34:32.388Z,12.88
2023-04-13T00:37:02.168Z,13.52
2023-04-13T00:39:31.375Z,12.93
2023-04-13T00:42:02.264Z,12.48
2023-04-13T00:44:30.816Z,12.68
2023-04-13T00:46:57.813Z,13.20
2023-04-13T00:49:24.780Z,12.38
2023-04-13T00:51:51.711Z,12.70
2023-04-13T00:54:19.045Z,12.13
2023-04-13T00:56:46.179Z,11.80
2023-04-13T00:59:13.179Z,12.45
2023-04-13T01:01:46.896Z,12.13
2023-04-13T01:04:14.162Z,12.52
2023-04-13T01:06:45.103Z,12.18
2023-04-13T01:09:15.553Z,11.40
2023-04-13T01:11:49.427Z,12.25
2023-04-13T01:14:26.359Z,11.43
2023-04-13T01:16:59.224Z,11.45
2023-04-13T01:19:59.846Z,11.20
2023-04-13T01:22:30.525Z,10.80
2023-04-13T01:24:58.015Z,10.40
2023-04-13T01:27:42.350Z,11.40
2023-04-13T01:30:13.596Z,11.35
2023-04-13T01:32:42.264Z,10.98
2023-04-13T01:35:11.906Z,11.48
2023-04-13T01:37:43.349Z,12.02
2023-04-13T01:40:15.192Z,11.57
2023-04-13T01:42:47.910Z,11.57
2023-04-13T01:45:23.556Z,11.50
2023-04-13T01:48:11.847Z,11.93
2023-04-13T01:51:08.679Z,11.45
2023-04-13T01:53:49.204Z,11.93
2023-04-13T01:56:19.355Z,12.18
2023-04-13T01:58:52.049Z,12.85
2023-04-13T02:01:19.812Z,11.90
2023-04-13T02:03:46.959Z,11.65
2023-04-13T02:06:14.644Z,11.23
2023-04-13T02:08:43.033Z,12.10
2023-04-13T02:11:10.303Z,11.43
2023-04-13T02:13:37.890Z,11.95
2023-04-13T02:16:26.138Z,15.27
2023-04-13T02:18:53.072Z,16.30
2023-04-13T02:21:20.844Z,16.83
2023-04-13T02:23:49.415Z,19.50
2023-04-13T02:26:16.544Z,18.25
2023-04-13T02:28:43.570Z,16.08
2023-04-13T02:31:10.529Z,13.90
2023-04-13T02:33:37.854Z,12.45
2023-04-13T02:36:05.462Z,13.40
2023-04-13T02:38:39.720Z,13.70
2023-04-13T02:41:13.656Z,13.15
2023-04-13T02:43:40.818Z,12.63
2023-04-13T02:46:08.864Z,11.90
2023-04-13T02:48:38.757Z,11.20
2023-04-13T02:51:07.061Z,11.60
2023-04-13T02:53:38.112Z,12.77
2023-04-13T02:56:07.799Z,14.38
2023-04-13T02:58:35.252Z,15.27
2023-04-13T03:01:06.705Z,15.05
2023-04-13T03:03:34.796Z,15.25
2023-04-13T03:06:02.149Z,14.70
2023-04-13T03:08:46.368Z,14.45
2023-04-13T03:11:23.635Z,13.32
2023-04-13T03:14:01.601Z,13.95
2023-04-13T03:16:30.701Z,13.70
2023-04-13T03:18:58.220Z,12.68
2023-04-13T03:21:26.296Z,13.80
2023-04-13T03:24:05.392Z,13.57
2023-04-13T03:26:32.697Z,13.52
2023-04-13T03:29:04.203Z,13.10
2023-04-13T03:31:35.288Z,13.95
2023-04-13T03:34:02.388Z,12.75
2023-04-13T03:36:29.706Z,13.65
2023-04-13T03:38:58.110Z,13.23
2023-04-13T03:41:27.690Z,12.40
2023-04-13T03:43:54.663Z,13.85
2023-04-13T03:46:22.080Z,13.55
2023-04-13T03:48:49.493Z,13.55
2023-04-13T03:51:21.873Z,12.93
2023-04-13T03:53:50.831Z,12.90
2023-04-13T03:56:23.903Z,13.35
2023-04-13T03:58:55.441Z,15.25
2023-04-13T04:01:26.075Z,14.40
2023-04-13T04:03:57.240Z,13.10
2023-04-13T04:06:29.480Z,14.15
2023-04-13T04:09:07.517Z,14.00
2023-04-13T04:11:40.699Z,14.00
2023-04-13T04:14:08.849Z,13.55
2023-04-13T04:16:35.943Z,13.45
2023-04-13T04:19:09.466Z,15.18
2023-04-13T04:21:37.004Z,15.05
2023-04-13T04:24:22.776Z,13.68
2023-04-13T04:26:55.174Z,14.25
2023-04-13T04:29:34.197Z,14.45
2023-04-13T04:32:11.134Z,14.48
2023-04-13T04:34:41.014Z,15.05
2023-04-13T04:37:20.229Z,14.10
2023-04-13T04:39:57.886Z,14.15
2023-04-13T04:42:25.959Z,13.93
2023-04-13T04:44:56.497Z,14.15
2023-04-13T04:47:30.663Z,14.70
2023-04-13T04:50:10.038Z,14.10
2023-04-13T04:52:42.688Z,15.77
2023-04-13T04:55:12.616Z,15.40
2023-04-13T04:57:41.476Z,17.35
2023-04-13T05:00:10.896Z,16.05
2023-04-13T05:02:40.207Z,15.75
2023-04-13T05:05:10.453Z,16.92
2023-04-13T05:07:38.373Z,17.33
2023-04-13T05:10:07.784Z,21.80
2023-04-13T05:12:37.934Z,16.65
2023-04-13T05:15:06.497Z,13.80
2023-04-13T05:17:36.416Z,15.10
2023-04-13T05:20:07.294Z,12.93
2023-04-13T05:22:52.991Z,12.50
2023-04-13T05:25:20.070Z,13.10
2023-04-13T05:27:48.088Z,18.48
2023-04-13T05:30:15.173Z,17.05
2023-04-13T05:32:44.120Z,15.73
2023-04-13T05:35:11.704Z,14.13
2023-04-13T05:37:40.208Z,12.40
2023-04-13T05:40:14.124Z,12.73
2023-04-13T05:42:42.781Z,12.82
2023-04-13T05:45:12.228Z,13.15
2023-04-13T05:47:54.685Z,11.80
2023-04-13T05:50:21.777Z,12.27
2023-04-13T05:52:48.796Z,11.30
2023-04-13T05:55:16.475Z,11.85
2023-04-13T05:57:48.478Z,13.32
2023-04-13T06:00:18.964Z,14.75
2023-04-13T06:02:56.924Z,14.98
2023-04-13T06:05:24.349Z,13.00
2023-04-13T06:07:51.770Z,13.45
2023-04-13T06:10:19.655Z,11.43
2023-04-13T06:12:48.777Z,12.98
2023-04-13T06:15:15.822Z,12.43
2023-04-13T06:17:42.915Z,11.18
2023-04-13T06:20:10.954Z,10.85
2023-04-13T06:22:37.937Z,11.45
2023-04-13T06:25:05.569Z,11.70
2023-04-13T06:27:35.358Z,12.18
2023-04-13T06:30:02.674Z,10.68
2023-04-13T06:32:33.201Z,11.52
2023-04-13T06:35:00.743Z,9.73
2023-04-13T06:37:35.180Z,9.45
2023-04-13T06:40:12.929Z,9.75
2023-04-13T06:42:47.272Z,8.32
2023-04-13T06:45:33.826Z,8.43
2023-04-13T06:48:07.073Z,8.73
2023-04-13T06:50:35.326Z,9.13
2023-04-13T06:53:04.068Z,8.70
2023-04-13T06:55:31.241Z,9.38
2023-04-13T06:57:58.736Z,9.57
2023-04-13T07:00:30.036Z,8.40
2023-04-13T07:02:58.903Z,7.55
2023-04-13T07:05:26.369Z,7.50
2023-04-13T07:07:56.388Z,7.30
2023-04-13T07:10:23.642Z,7.45
2023-04-13T07:12:52.229Z,7.93
2023-04-13T07:15:22.261Z,7.03
2023-04-13T07:17:52.600Z,7.50
2023-04-13T07:20:19.781Z,7.40
2023-04-13T07:22:47.937Z,7.35
2023-04-13T07:25:14.997Z,7.43
2023-04-13T07:27:41.842Z,7.55
2023-04-13T07:30:09.221Z,7.45
2023-04-13T07:32:41.493Z,8.05
2023-04-13T07:35:10.186Z,7.70
2023-04-13T07:37:39.145Z,7.47
2023-04-13T07:40:09.048Z,8.07
2023-04-13T07:42:36.796Z,7.93
2023-04-13T07:45:04.018Z,8.68
2023-04-13T07:47:32.573Z,7.68
2023-04-13T07:50:06.304Z,7.97
2023-04-13T07:52:33.879Z,8.02
2023-04-13T07:55:02.838Z,8.35
2023-04-13T07:57:33.577Z,8.77
2023-04-13T08:00:05.156Z,8.07
2023-04-13T08:02:41.811Z,8.05
2023-04-13T08:05:13.594Z,8.35
2023-04-13T08:07:42.189Z,8.80
2023-04-13T08:10:09.712Z,8.48
2023-04-13T08:12:36.765Z,8.90
2023-04-13T08:15:05.912Z,9.02
2023-04-13T08:17:34.083Z,8.60
2023-04-13T08:20:01.243Z,8.88
2023-04-13T08:22:53.304Z,8.82
2023-04-13T08:25:21.212Z,8.50
2023-04-13T08:27:48.201Z,8.88
2023-04-13T08:30:15.273Z,9.88
2023-04-13T08:32:49.566Z,8.05
2023-04-13T08:35:17.482Z,9.35
2023-04-13T08:37:44.542Z,9.13
2023-04-13T08:40:12.202Z,9.32
2023-04-13T08:42:40.915Z,8.85
2023-04-13T08:45:09.223Z,9.25
2023-04-13T08:47:39.347Z,9.43
2023-04-13T08:50:07.655Z,9.18
2023-04-13T08:52:44.150Z,8.60
2023-04-13T08:55:15.694Z,9.20
2023-04-13T08:57:45.427Z,8.77
2023-04-13T09:00:16.281Z,8.93
2023-04-13T09:03:00.586Z,8.93
2023-04-13T09:05:31.744Z,9.40
2023-04-13T09:08:04.709Z,9.50
2023-04-13T09:10:31.657Z,9.07
2023-04-13T09:12:58.603Z,9.57
2023-04-13T09:15:25.894Z,9.95
2023-04-13T09:18:16.204Z,9.80
2023-04-13T09:21:00.184Z,9.80
2023-04-13T09:23:27.229Z,8.27
2023-04-13T09:26:07.908Z,9.57
2023-04-13T09:28:45.502Z,8.77
2023-04-13T09:31:13.856Z,8.77
2023-04-13T09:33:49.802Z,9.00
2023-04-13T09:38:45.404Z,8.65
2023-04-13T09:41:12.532Z,8.85
2023-04-13T09:43:39.697Z,8.93
2023-04-13T09:46:16.243Z,9.52
2023-04-13T09:48:46.418Z,9.15
2023-04-13T09:51:13.389Z,9.50
2023-04-13T09:53:42.986Z,9.25
2023-04-13T09:56:09.979Z,10.63
2023-04-13T09:58:47.160Z,9.68
2023-04-13T10:01:17.175Z,8.05
2023-04-13T10:03:44.422Z,8.23
2023-04-13T10:06:11.676Z,9.27
2023-04-13T10:08:46.361Z,10.23
2023-04-13T10:11:17.307Z,9.47
2023-04-13T10:13:58.198Z,9.63
2023-04-13T10:16:44.078Z,9.90
2023-04-13T10:19:18.377Z,10.40
2023-04-13T10:21:47.526Z,8.73
2023-04-13T10:24:14.705Z,8.70
2023-04-13T10:26:42.118Z,8.98
2023-04-13T10:29:11.601Z,9.70
2023-04-13T10:31:46.652Z,10.40
2023-04-13T10:34:27.671Z,10.38
2023-04-13T10:37:14.985Z,10.30
2023-04-13T10:39:42.074Z,10.93
2023-04-13T10:42:10.004Z,15.68
2023-04-13T10:44:49.700Z,8.98
2023-04-13T10:47:18.330Z,9.43
2023-04-13T10:49:46.802Z,9.88
2023-04-13T10:52:14.289Z,9.40
2023-04-13T10:54:41.981Z,9.93
2023-04-13T10:57:11.254Z,12.50
2023-04-13T10:59:57.185Z,11.50
2023-04-13T11:02:27.170Z,10.30
2023-04-13T11:04:54.318Z,9.70
2023-04-13T11:07:23.432Z,9.13
2023-04-13T11:09:53.477Z,10.65
2023-04-13T11:12:20.505Z,9.35
2023-04-13T11:14:47.974Z,9.27
2023-04-13T11:17:16.715Z,10.07
2023-04-13T11:19:53.883Z,11.93
2023-04-13T11:22:27.646Z,19.33
2023-04-13T11:25:08.579Z,10.98
2023-04-13T11:27:35.478Z,12.13
2023-04-13T11:30:06.754Z,19.83
2023-04-13T11:32:34.398Z,16.83
2023-04-13T11:35:12.287Z,15.88
2023-04-13T11:37:41.136Z,10.88
2023-04-13T11:40:20.432Z,10.60
2023-04-13T11:42:53.392Z,9.68
2023-04-13T11:45:22.485Z,12.07
2023-04-13T11:47:50.402Z,27.00
2023-04-13T11:50:18.056Z,19.42
2023-04-13T11:52:46.655Z,13.88
2023-04-13T11:55:22.541Z,17.27
2023-04-13T11:57:50.814Z,11.82
2023-04-13T12:00:21.560Z,9.80
2023-04-13T12:03:01.101Z,13.43
2023-04-13T12:05:31.547Z,15.88
2023-04-13T12:07:59.478Z,14.30
2023-04-13T12:10:38.342Z,11.27
2023-04-13T12:13:18.473Z,18.35
2023-04-13T12:16:07.776Z,15.18
2023-04-13T12:18:46.106Z,9.55
2023-04-13T12:21:16.442Z,8.90
2023-04-13T12:23:57.291Z,8.45
2023-04-13T12:29:14.407Z,8.15
2023-04-13T12:31:41.623Z,8.82
2023-04-13T12:34:08.633Z,9.13
2023-04-13T12:36:36.884Z,9.23
2023-04-13T12:39:04.601Z,9.10
2023-04-13T12:41:32.978Z,8.55
2023-04-13T12:44:00.104Z,8.75
2023-04-13T12:46:27.013Z,9.00
2023-04-13T12:48:54.189Z,12.23
2023-04-13T12:51:24.192Z,9.32
2023-04-13T12:53:51.259Z,8.82
2023-04-13T12:56:18.485Z,8.18
2023-04-13T12:58:45.479Z,9.30
2023-04-13T13:01:14.103Z,8.30
2023-04-13T13:03:41.465Z,8.73
2023-04-13T13:06:08.586Z,7.72
2023-04-13T13:08:38.365Z,8.80
2023-04-13T13:11:08.405Z,8.93
2023-04-13T13:13:35.972Z,8.57
2023-04-13T13:16:03.689Z,8.27
2023-04-13T13:18:42.709Z,8.93
2023-04-13T13:21:17.162Z,8.18
2023-04-13T13:23:45.449Z,8.60
2023-04-13T13:26:23.702Z,8.15
2023-04-13T13:28:52.350Z,8.00
2023-04-13T13:31:19.707Z,8.10
2023-04-13T13:33:46.948Z,7.68
2023-04-13T13:36:14.718Z,8.63
2023-04-13T13:38:43.121Z,8.35
2023-04-13T13:41:10.445Z,9.07
2023-04-13T13:43:38.041Z,10.05
2023-04-13T13:46:08.373Z,14.38
2023-04-13T13:48:37.745Z,9.55
2023-04-13T13:51:25.026Z,9.45
2023-04-13T13:53:51.910Z,10.75
2023-04-13T13:56:19.142Z,8.57
2023-04-13T13:58:46.149Z,8.30
2023-04-13T14:01:13.096Z,10.73
2023-04-13T14:03:40.117Z,11.23
2023-04-13T14:06:07.820Z,8.85
2023-04-13T14:08:35.038Z,9.23
2023-04-13T14:11:03.164Z,5.38
2023-04-13T14:13:31.128Z,5.38
2023-04-13T14:15:58.171Z,4.57
2023-04-13T14:18:25.218Z,4.35
2023-04-13T14:20:52.224Z,4.47
2023-04-13T14:23:19.152Z,4.72
2023-04-13T14:25:46.463Z,4.70
2023-04-13T14:28:14.728Z,4.15
2023-04-13T14:30:45.261Z,4.85
2023-04-13T14:33:14.746Z,4.53
2023-04-13T14:35:41.708Z,4.72
2023-04-13T14:38:08.673Z,3.75
2023-04-13T14:40:36.008Z,3.70
2023-04-13T14:43:02.963Z,4.25
2023-04-13T14:45:29.846Z,3.80
2023-04-13T14:47:56.766Z,3.60
2023-04-13T14:50:24.332Z,3.78
2023-04-13T14:52:52.431Z,4.07
2023-04-13T14:55:19.480Z,3.55
2023-04-13T14:57:47.293Z,11.05
2023-04-13T15:00:18.180Z,8.95
2023-04-13T15:02:45.391Z,6.35
2023-04-13T15:05:12.783Z,8.35
2023-04-13T15:07:40.290Z,4.70
2023-04-13T15:10:08.601Z,3.90
2023-04-13T15:12:35.655Z,4.40
2023-04-13T15:15:02.852Z,8.98
2023-04-13T15:17:30.840Z,10.75
2023-04-13T15:19:57.808Z,11.65
2023-04-13T15:22:24.857Z,6.40
2023-04-13T15:24:51.867Z,4.20
2023-04-13T15:27:18.795Z,3.53
2023-04-13T15:29:45.924Z,6.40
2023-04-13T15:32:12.854Z,4.70
2023-04-13T15:34:40.707Z,6.80
2023-04-13T15:37:07.689Z,4.80
2023-04-13T15:39:34.748Z,6.97
2023-04-13T15:42:02.381Z,4.80
2023-04-13T15:44:29.362Z,5.75
2023-04-13T15:46:56.324Z,10.57
2023-04-13T15:49:23.264Z,9.30
2023-04-13T15:51:50.211Z,12.02
2023-04-13T15:54:17.391Z,6.50
2023-04-13T15:56:44.407Z,4.78
2023-04-13T15:59:11.503Z,17.35
2023-04-13T16:01:48.726Z,8.48
2023-04-13T16:04:16.448Z,8.73
2023-04-13T16:06:43.637Z,6.38
2023-04-13T16:09:10.938Z,10.52
2023-04-13T16:11:42.258Z,18.08
2023-04-13T16:14:09.231Z,8.50
2023-04-13T16:16:46.916Z,9.18
2023-04-13T16:19:14.054Z,13.77
2023-04-13T16:21:44.030Z,13.75
2023-04-13T16:24:11.104Z,10.95
2023-04-13T16:26:38.227Z,6.63
2023-04-13T16:29:05.381Z,3.75
2023-04-13T16:31:32.473Z,4.15
2023-04-13T16:33:59.506Z,6.07
2023-04-13T16:36:27.413Z,4.38
2023-04-13T16:38:54.501Z,3.70
2023-04-13T16:41:21.412Z,3.80
2023-04-13T16:43:48.335Z,3.25
2023-04-13T16:46:16.209Z,4.40
2023-04-13T16:48:43.160Z,10.52
2023-04-13T16:51:10.068Z,6.95
2023-04-13T16:53:37.100Z,6.20
2023-04-13T16:56:04.119Z,4.32
2023-04-13T16:58:31.549Z,3.33
2023-04-13T17:00:58.926Z,7.50
2023-04-13T17:03:29.097Z,4.60
2023-04-13T17:05:56.408Z,4.75
2023-04-13T17:08:23.829Z,4.82
2023-04-13T17:10:54.403Z,4.72
2023-04-13T17:13:21.800Z,6.85
2023-04-13T17:15:48.876Z,4.10
2023-04-13T17:18:15.840Z,3.70
2023-04-13T17:20:42.733Z,9.35
2023-04-13T17:23:09.823Z,9.18
2023-04-13T17:25:41.474Z,4.30
2023-04-13T17:28:08.509Z,3.38
2023-04-13T17:30:35.788Z,6.95
2023-04-13T17:33:04.510Z,5.05
2023-04-13T17:35:31.545Z,6.55
2023-04-13T17:37:58.491Z,7.18
2023-04-13T17:40:25.587Z,7.00
2023-04-13T17:42:52.572Z,7.68
2023-04-13T17:45:19.731Z,7.93
2023-04-13T17:48:12.102Z,8.65
2023-04-13T17:50:39.200Z,8.35
2023-04-13T17:53:06.060Z,4.60
2023-04-13T17:55:36.223Z,3.92
2023-04-13T17:58:03.105Z,9.25
2023-04-13T18:00:30.202Z,5.72
2023-04-13T18:02:58.356Z,6.15
2023-04-13T18:05:26.678Z,9.82
2023-04-13T18:07:56.544Z,7.22
2023-04-13T18:10:24.653Z,8.52
2023-04-13T18:12:51.806Z,6.90
2023-04-13T18:15:18.735Z,10.00
2023-04-13T18:17:46.063Z,10.95
2023-04-13T18:20:13.103Z,7.25
2023-04-13T18:22:40.033Z,9.07
2023-04-13T18:25:07.220Z,3.70
2023-04-13T18:27:34.733Z,4.80
2023-04-13T18:30:01.870Z,9.02
2023-04-13T18:32:30.952Z,6.82
2023-04-13T18:34:58.203Z,9.23
2023-04-13T18:37:25.436Z,11.13
2023-04-13T18:39:53.981Z,11.80
2023-04-13T18:42:21.021Z,6.28
2023-04-13T18:44:48.071Z,6.22
2023-04-13T18:47:15.068Z,5.95
2023-04-13T18:49:42.068Z,7.88
2023-04-13T18:52:09.003Z,7.10
2023-04-13T18:54:36.586Z,10.48
2023-04-13T18:57:03.775Z,7.43
2023-04-13T18:59:30.802Z,5.55
2023-04-13T19:01:57.837Z,6.30
2023-04-13T19:04:25.097Z,8.15
2023-04-13T19:06:52.492Z,8.60
2023-04-13T19:09:19.508Z,7.32
2023-04-13T19:11:49.479Z,6.15
2023-04-13T19:14:16.561Z,6.32
2023-04-13T19:16:45.690Z,6.90
2023-04-13T19:19:15.836Z,11.40
2023-04-13T19:21:43.014Z,8.38
2023-04-13T19:24:13.099Z,5.28
2023-04-13T19:26:40.923Z,7.80
2023-04-13T19:29:12.680Z,7.22
2023-04-13T19:31:41.485Z,6.82
2023-04-13T19:34:08.984Z,4.53
2023-04-13T19:36:37.059Z,4.50
2023-04-13T19:39:05.803Z,3.90
2023-04-13T19:41:33.009Z,6.60
2023-04-13T19:44:00.701Z,10.95
2023-04-13T19:46:28.651Z,7.70
2023-04-13T19:48:58.873Z,12.75
2023-04-13T19:51:29.456Z,7.88
2023-04-13T19:53:57.727Z,10.80
2023-04-13T19:56:25.270Z,7.47
2023-04-13T19:58:55.324Z,8.40
2023-04-13T20:01:22.743Z,6.05
2023-04-13T20:03:50.269Z,8.43
2023-04-13T20:06:17.668Z,9.23
2023-04-13T20:08:45.000Z,7.45
2023-04-13T20:11:12.126Z,7.97
2023-04-13T20:13:39.846Z,8.27
2023-04-13T20:16:06.997Z,11.95
2023-04-13T20:18:34.116Z,11.15
2023-04-13T20:21:01.030Z,6.13
2023-04-13T20:23:29.842Z,15.02
2023-04-13T20:25:57.011Z,6.70
2023-04-13T20:28:24.151Z,7.10
2023-04-13T20:30:51.549Z,9.18
2023-04-13T20:33:18.561Z,8.07
2023-04-13T20:35:45.754Z,12.82
2023-04-13T20:38:14.212Z,9.13
2023-04-13T20:40:41.905Z,6.75
2023-04-13T20:43:11.000Z,8.52
2023-04-13T20:45:38.440Z,7.72
2023-04-13T20:50:36.541Z,11.00
2023-04-13T20:53:04.900Z,7.22
2023-04-13T20:55:32.555Z,10.82
2023-04-13T20:57:59.452Z,12.43
2023-04-13T21:00:27.606Z,13.23
2023-04-13T21:02:55.051Z,11.65
2023-04-13T21:05:22.478Z,12.85
2023-04-13T21:07:50.217Z,9.00
2023-04-13T21:10:17.816Z,8.45
2023-04-13T21:12:44.912Z,6.63
2023-04-13T21:15:12.022Z,13.38
2023-04-13T21:17:39.155Z,9.93
2023-04-13T21:20:08.943Z,5.25
2023-04-13T21:22:36.522Z,5.57
2023-04-13T21:25:04.148Z,3.17
2023-04-13T21:27:31.126Z,3.05
2023-04-13T21:29:58.964Z,2.40
2023-04-13T21:32:26.014Z,3.78
2023-04-13T21:34:55.110Z,4.40
2023-04-13T21:37:22.081Z,3.70
2023-04-13T21:39:49.094Z,5.10
2023-04-13T21:42:17.022Z,4.68
2023-04-13T21:44:43.990Z,5.82
2023-04-13T21:47:10.820Z,2.85
2023-04-13T21:49:37.727Z,4.30
2023-04-13T21:52:04.711Z,5.18
2023-04-13T21:54:31.653Z,4.20
2023-04-13T21:56:58.832Z,6.53
2023-04-13T21:59:27.402Z,3.22
2023-04-13T22:01:54.911Z,5.95
2023-04-13T22:04:22.286Z,5.07
2023-04-13T22:06:49.422Z,2.70
2023-04-13T22:09:16.541Z,3.22
2023-04-13T22:11:43.464Z,2.78
2023-04-13T22:14:10.820Z,3.10
2023-04-13T22:16:37.755Z,3.42
2023-04-13T22:19:04.718Z,4.03
2023-04-13T22:21:34.407Z,4.43
2023-04-13T22:24:01.330Z,4.90
2023-04-13T22:26:28.360Z,5.22
2023-04-13T22:28:55.735Z,5.60
2023-04-13T22:31:22.868Z,9.02
2023-04-13T22:33:49.801Z,6.20
2023-04-13T22:36:20.629Z,5.43
2023-04-13T22:38:47.983Z,5.15
2023-04-13T22:41:14.925Z,4.38
2023-04-13T22:43:41.879Z,6.03
2023-04-13T22:46:08.846Z,4.22
2023-04-13T22:48:36.082Z,3.60
2023-04-13T22:51:05.869Z,3.72
2023-04-13T22:53:32.961Z,5.10
2023-04-13T22:56:00.872Z,3.30
2023-04-13T22:58:28.077Z,6.43
2023-04-13T23:00:55.459Z,3.88
2023-04-13T23:03:22.640Z,4.03
2023-04-13T23:05:49.981Z,5.35
2023-04-13T23:08:17.001Z,3.20
2023-04-13T23:10:43.858Z,2.70
2023-04-13T23:13:10.957Z,5.35
2023-04-13T23:15:39.437Z,4.95
2023-04-13T23:18:06.539Z,5.90
2023-04-13T23:20:33.462Z,5.38
2023-04-13T23:23:00.521Z,8.18
2023-04-13T23:25:27.554Z,5.65
2023-04-13T23:27:54.588Z,4.18
2023-04-13T23:30:21.573Z,4.10
2023-04-13T23:32:48.496Z,3.50
2023-04-13T23:35:15.462Z,3.55
2023-04-13T23:37:43.533Z,4.43
2023-04-13T23:40:10.999Z,7.15
2023-04-13T23:42:39.337Z,5.10
2023-04-13T23:45:07.483Z,7.22
2023-04-13T23:47:34.544Z,4.53
2023-04-13T23:50:01.763Z,7.13
2023-04-13T23:52:29.483Z,4.32
2023-04-13T23:54:57.168Z,5.10
2023-04-13T23:57:24.111Z,6.00
2023-04-13T23:59:57.364Z,6.00
